createdAt,value
2018-04-23T00:18:59.556Z,76.63
2018-04-23T00:39:32.063Z,77.31
2018-04-23T01:00:04.264Z,79.09
2018-04-23T01:20:38.648Z,78.69
2018-04-23T01:41:09.834Z,78.71
2018-04-23T02:01:44.851Z,79.69
2018-04-23T02:22:17.983Z,80.38
2018-04-23T02:42:53.504Z,81.08
2018-04-23T03:03:25.735Z,80.95
2018-04-23T03:23:57.905Z,81.16
2018-04-23T03:44:30.792Z,81.31
2018-04-23T04:05:04.199Z,81.61
2018-04-23T04:25:36.685Z,81.75
2018-04-23T04:46:08.300Z,82.74
2018-04-23T05:06:41.934Z,82.42
2018-04-23T05:27:13.926Z,83.41
2018-04-23T05:47:47.042Z,84.42
2018-04-23T06:08:22.317Z,83.43
2018-04-23T06:28:57.591Z,82.90
2018-04-23T06:49:35.053Z,81.31
2018-04-23T07:10:09.986Z,79.44
2018-04-23T07:30:45.248Z,76.76
2018-04-23T07:51:20.523Z,74.83
2018-04-23T08:11:54.564Z,72.42
2018-04-23T08:32:29.536Z,66.92
2018-04-23T08:53:02.397Z,65.26
2018-04-23T09:13:37.007Z,60.38
2018-04-23T09:34:11.661Z,57.51
2018-04-23T09:54:44.781Z,58.82
2018-04-23T10:15:16.993Z,57.65
2018-04-23T10:35:50.467Z,55.66
2018-04-23T10:56:25.373Z,53.06
2018-04-23T11:17:01.577Z,50.23
2018-04-23T11:37:35.921Z,50.44
2018-04-23T11:58:09.965Z,52.01
2018-04-23T12:18:43.396Z,51.66
2018-04-23T12:39:16.521Z,52.52
2018-04-23T12:59:49.639Z,51.65
2018-04-23T13:20:23.991Z,52.08
2018-04-23T13:40:59.456Z,49.62
2018-04-23T14:01:34.713Z,47.79
2018-04-23T14:22:07.895Z,44.49
2018-04-23T14:42:39.852Z,43.66
2018-04-23T15:03:12.293Z,44.89
2018-04-23T15:23:44.255Z,44.71
2018-04-23T15:44:16.772Z,44.61
2018-04-23T16:04:49.579Z,46.18
2018-04-23T16:25:23.927Z,45.75
2018-04-23T16:45:57.977Z,46.66
2018-04-23T17:06:36.929Z,48.71
2018-04-23T17:27:13.863Z,49.60
2018-04-23T17:47:53.935Z,50.67
2018-04-23T18:08:29.459Z,52.40
2018-04-23T18:29:02.322Z,55.43
2018-04-23T18:49:36.673Z,58.38
2018-04-23T19:10:06.721Z,61.69
2018-04-23T19:30:38.924Z,65.80
2018-04-23T19:51:13.273Z,68.59
2018-04-23T20:11:46.395Z,70.63
2018-04-23T20:32:20.838Z,72.15
2018-04-23T20:52:53.865Z,71.26
2018-04-23T21:13:26.990Z,71.15
2018-04-23T21:34:01.034Z,70.77
2018-04-23T21:54:35.383Z,72.62
2018-04-23T22:33:10.521Z,75.88
2018-04-23T22:53:44.529Z,75.37
2018-04-23T23:14:22.870Z,77.28
2018-04-23T23:34:55.994Z,77.92
2018-04-23T23:55:32.186Z,78.79
